x

Big Bay, Mi (bigm4) Weather Station

4:40pm - Tue 27th Jan 2015 All times are CST. -6 hours from GMT.

  • Wind
  • Air Temp 26°f
  • Sea Pressure 1021.7mb
  • Big Bay, Mi
  • Big Bay, Mi

More Historic Weather Station data

Upgrade to MSW Pro to gain access to the past 30 days of data for over 8000 Wavebouys and Weather Stations around the globe.

Join Pro

Comparision Forecast

View Surf forecast
   
Tue 01/27 4:40pm  -  3 mph 1021.7mb 26f
4:30pm  -  6 mph 1021.7mb 26f
4:20pm  -  5 mph 1021.7mb 26f
4:10pm  -  7 mph 1021.7mb 26f
4:00pm  -  7 mph 1021.7mb 26f
3:40pm 3 7 mph 1021.3mb 27f
3:30pm  -  5 mph 1021.3mb 27f
3:20pm  -  3 mph 1021.3mb 27f
3:10pm 2 5 mph 1021.3mb 27f
3:00pm 1 6 mph 1021.3mb 28f
2:40pm  -  mph 1021.3mb 29f
2:30pm  -  mph 1021.3mb 28f
2:20pm  -  3 mph 1021.3mb 28f
2:10pm  -  mph 1021.3mb 28f
2:00pm  -  2 mph 1021.3mb 28f
1:40pm  -  2 mph 1021mb 27f
1:30pm  -  3 mph 1021.3mb 27f
1:20pm  -  3 mph 1021.3mb 26f
1:10pm  -  2 mph 1021.3mb 26f
1:00pm  -  1 mph 1021.3mb 26f
12:40pm  -  3 mph 1021.3mb 25f
12:30pm  -  2 mph 1021.3mb 25f
12:20pm  -  3 mph 1021.7mb 25f
12:10pm  -  3 mph 1021.7mb 25f
12:00pm  -  3 mph 1021.7mb 28f
11:40am  -  5 mph 1022mb 29f
11:30am  -  3 mph 1021.7mb 28f
11:20am  -  5 mph 1021.7mb 26f
11:10am 1 5 mph 1021.7mb 25f
11:00am 2 6 mph 1021.7mb 25f
10:40am 5 8 mph 1021.7mb 23f
10:30am 6 8 mph 1021.7mb 22f
10:20am 5 8 mph 1021.7mb 22f
10:10am 2 7 mph 1021.7mb 21f
10:00am  -  3 mph 1021.7mb 21f
9:40am  -  2 mph 1021.3mb 18f
9:30am  -  mph 1021mb 17f
9:20am  -  mph 1021mb 15f
9:10am  -  mph 1021mb 13f
9:00am  -  2 mph 1020.7mb 12f
8:40am  -  1 mph 1020mb 9f
8:30am  -  mph 1020mb 8f
8:20am  -  mph 1020mb 7f
8:10am  -  mph 1019.6mb 6f
8:00am  -  mph 1019.6mb 6f
7:40am  -  mph 1019.6mb 5f
7:30am  -  mph 1019.6mb 6f
7:20am  -  mph 1019.6mb 6f
7:10am  -  mph 1019.6mb 6f
7:00am  -  mph 1019.3mb 6f
6:40am  -  2 mph 1019mb 6f
6:30am  -  2 mph 1019mb 6f
6:20am  -  mph 1019mb 7f
6:10am  -  mph 1019mb 7f
6:00am  -  mph 1018.6mb 8f
5:40am  -  1 mph 1018.6mb 9f
5:30am 1 2 mph 1018.6mb 9f
5:20am  -  3 mph 1018.6mb 10f
5:10am  -  mph 1018.6mb 11f
5:00am  -  mph 1018.3mb 11f
4:40am  -  1 mph 1017.9mb 12f
4:30am  -  1 mph 1017.9mb 13f
4:20am  -  mph 1017.9mb 13f
4:10am  -  mph 1017.6mb 14f
4:00am  -  mph 1017.6mb 14f
3:40am  -  1 mph 1017.3mb 13f
3:30am  -  1 mph 1017.3mb 13f
3:20am  -  mph 1017.3mb 13f
3:10am  -  mph 1017.3mb 12f
3:00am  -  1 mph 1017.3mb 11f
2:40am  -  5 mph 1016.9mb 12f
2:30am 1 3 mph 1016.9mb 12f
2:20am 2 3 mph 1016.6mb 13f
2:10am 1 5 mph 1016.6mb 14f
2:00am 1 3 mph 1016.6mb 14f
1:40am 3
mph
1016.6mb 12f
1:30am 3 5 mph 1016.6mb 12f
1:20am 3 6 mph 1016.3mb 15f
1:10am 3 6 mph 1015.9mb 13f
1:00am 3 6 mph 1015.9mb 14f
12:40am 2 3 mph 1015.9mb 15f
12:30am 2 5 mph 1015.6mb 16f
12:20am 3 5 mph 1015.6mb 16f
12:10am 2 5 mph 1015.6mb 17f
12:00am 2 5 mph 1015.2mb 18f
Mon 01/26 11:40pm 3 6 mph 1015.2mb 19f
11:30pm 3 6 mph 1015.2mb 19f
11:20pm 2 6 mph 1015.2mb 19f
11:10pm 3 7 mph 1015.2mb 20f
11:00pm 3 8 mph 1014.9mb 20f
10:40pm 5 8 mph 1014.6mb 20f
10:30pm 5 7 mph 1014.6mb 20f
10:20pm 3 7 mph 1014.2mb 20f
10:10pm 3 7 mph 1014.2mb 20f
10:00pm 5 9 mph 1013.9mb 20f
9:40pm 6 10 mph 1013.5mb 20f
9:30pm 7 11 mph 1013.5mb 20f
9:20pm 8 13 mph 1013.5mb 20f
9:10pm 7 13 mph 1013.5mb 21f
9:00pm 8 11 mph 1013.2mb 21f
8:40pm 7 15 mph 1012.9mb 21f
8:30pm 9 13 mph 1012.9mb 21f
8:20pm 8 11 mph 1012.9mb 21f
8:10pm 7 13 mph 1012.9mb 21f
8:00pm 8 11 mph 1012.5mb 22f
7:40pm 7 11 mph 1012.5mb 22f
7:30pm 6 11 mph 1012.5mb 22f
7:20pm 5 8 mph 1012.5mb 22f
7:10pm 3 7 mph 1012.2mb 23f
7:00pm 2 6 mph 1012.2mb 23f
6:40pm 1 5 mph 1011.9mb 23f
6:30pm  -  5 mph 1011.9mb 23f
6:20pm  -  16 mph 1011.5mb 23f
6:10pm 2 8 mph 1011.2mb 23f
6:00pm 5 13 mph 1010.8mb 23f
5:40pm 7 11 mph 1010.5mb 24f
5:30pm 6 9 mph 1010.5mb 24f
5:20pm 6 9 mph 1010.5mb 24f
5:10pm 5 10 mph 1010.5mb 24f
5:00pm 5 8 mph 1010.5mb 24f
4:50pm 8 11 mph 1010.2mb 24f
4:40pm 3 16 mph 1009.8mb 24f
4:30pm 5 11 mph 1009.5mb 24f
4:20pm 6 17 mph 1009.5mb 24f
4:10pm 8 16 mph 1009.1mb 24f
4:00pm 8 15 mph 1008.8mb 24f
3:50pm 9 16 mph 1008.8mb 24f
3:40pm 10 17 mph 1008.8mb 24f
3:30pm 7 17 mph 1008.5mb 24f
3:20pm 9 15 mph 1008.5mb 24f
3:10pm 10 17 mph 1008.5mb 24f
3:00pm 13 17 mph 1008.8mb 24f
2:50pm 9 15 mph 1008.5mb 24f
2:40pm 10 18 mph 1008.8mb 24f
2:30pm 10 18 mph 1008.1mb 24f
2:20pm 8 14 mph 1008.1mb 24f
2:10pm 8 14 mph 1008.1mb 24f
2:00pm 9 14 mph 1008.1mb 24f
1:50pm 8 15 mph 1008.1mb 24f
1:40pm 7 15 mph 1008.1mb 24f
1:30pm 6 13 mph 1008.1mb 24f
1:20pm 8 14 mph 1007.8mb 24f
1:10pm 9 18 mph 1007.8mb 24f
1:00pm 8 13 mph 1007.8mb 23f
12:50pm 10 16 mph 1007.8mb 23f
12:40pm 13 20 mph 1008.1mb 23f
12:30pm 11 21 mph 1008.1mb 23f
12:20pm 11 21 mph 1008.5mb 24f
12:10pm 11 20 mph 1008.5mb 24f
12:00pm 8 17 mph 1008.8mb 23f
11:50am 7 20 mph 1008.5mb 23f
11:40am 8 18 mph 1008.5mb 22f
11:30am 8 16 mph 1008.8mb 22f
11:20am 10 16 mph 1008.5mb 21f
11:10am 9 17 mph 1008.8mb 21f
11:00am 8 15 mph 1008.8mb 21f
10:50am 11 18 mph 1008.8mb 20f
10:40am 8 15 mph 1009.1mb 20f
10:30am 8 17 mph 1008.8mb 20f
10:20am 7 18 mph 1008.8mb 20f
10:10am 8 16 mph 1009.1mb 20f
10:00am 6 17 mph 1008.8mb 20f
9:50am 5 11 mph 1008.5mb 20f
9:40am 8 14 mph 1008.8mb 19f
9:30am 7 10 mph 1008.8mb 19f
9:20am 5 9 mph 1008.8mb 19f
9:10am 7 11 mph 1008.8mb 19f
9:00am 6 10 mph 1008.8mb 19f
8:50am 5 8 mph 1008.8mb 18f
8:40am 2 7 mph 1008.8mb 18f
8:30am 2 9 mph 1009.1mb 18f
8:20am 3 9 mph 1009.1mb 18f
8:10am  -  6 mph 1009.1mb 17f
8:00am 3 7 mph 1009.1mb 17f
7:50am  -  3 mph 1009.1mb 16f
7:40am  -  6 mph 1009.5mb 17f
7:30am  -  10 mph 1009.5mb 16f
7:20am  -  6 mph 1009.5mb 16f
7:10am 3 8 mph 1009.5mb 16f
7:00am  -  9 mph 1009.8mb 16f
6:50am 2 14 mph 1009.8mb 16f
6:40am 6 13 mph 1009.8mb 15f
6:30am 7 11 mph 1010.2mb 15f
6:20am 7 13 mph 1010.2mb 15f
6:10am 3 8 mph 1010.2mb 15f
6:00am 6 13 mph 1010.2mb 15f
5:50am 5 13 mph 1010.2mb 15f
5:40am 5 14 mph 1010.2mb 15f
5:30am 8 15 mph 1010.5mb 15f
5:20am 6 13 mph 1010.5mb 15f
5:10am 5 13 mph 1010.8mb 15f
5:00am 6 14 mph 1010.8mb 15f
4:50am 6 15 mph 1011.2mb 15f
4:40am 5 13 mph 1011.2mb 16f
4:30am 5 13 mph 1011.5mb 16f
4:20am 2 10 mph 1011.5mb 15f
4:10am 2 9 mph 1011.9mb 15f
4:00am 6 10 mph 1011.9mb 15f
3:50am 2 8 mph 1011.9mb 15f
3:40am 5 11 mph 1011.9mb 14f
3:30am 6 14 mph 1011.5mb 14f
3:20am 7 14 mph 1011.5mb 14f
3:10am 5 14 mph 1011.9mb 13f
3:00am 5 9 mph 1012.2mb 13f
2:50am 5 8 mph 1012.2mb 13f
2:40am 1 6 mph 1012.5mb 13f
2:30am 2 9 mph 1012.5mb 12f
2:20am 2 10 mph 1012.5mb 12f
2:10am 3 6 mph 1012.5mb 12f
2:00am  -  5 mph 1012.9mb 11f
1:50am 1 5 mph 1012.9mb 11f
1:40am  -  6 mph 1012.9mb 11f
1:30am 2 7 mph 1012.9mb 11f
1:20am 1 7 mph 1013.2mb 11f
1:10am 5 8 mph 1013.5mb 11f
1:00am 6 11 mph 1013.5mb 11f
12:50am 2 7 mph 1013.5mb 10f
12:40am  -  2 mph 1013.5mb 10f
12:30am  -  8 mph 1013.5mb 10f
12:20am 5 8 mph 1013.9mb 10f
12:10am  -  6 mph 1013.9mb 5f
12:00am  -  5 mph 1014.2mb 5f
Sun 01/25 11:50pm  -  3 mph 1014.2mb 2f
11:40pm 1 5 mph 1014.2mb 3f
11:30pm 3 5 mph 1014.6mb 3f
11:20pm  -  3 mph 1014.6mb 2f
11:10pm  -  1 mph 1014.6mb 1f
11:00pm  -  mph 1014.6mb 1f
10:50pm  -  mph 1014.9mb 1f
10:40pm  -  mph 1014.6mb 1f
10:30pm  -  mph 1014.9mb 2f
10:20pm  -  mph 1014.9mb 1f
10:10pm  -  mph 1014.9mb 1f
10:00pm  -  mph 1014.9mb 1f
9:50pm  -  mph 1014.9mb 1f
9:40pm  -  mph 1014.9mb 1f
9:30pm  -  1 mph 1014.9mb 1f
9:20pm  -  mph 1015.2mb 2f
9:10pm  -  3 mph 1015.6mb 2f
9:00pm  -  2 mph 1015.9mb 3f
8:50pm  -  3 mph 1016.3mb 4f
8:40pm  -  2 mph 1016.6mb 4f
8:30pm  -  1 mph 1016.6mb 5f
8:20pm  -  mph 1016.9mb 5f
8:10pm  -  mph 1017.3mb 5f
8:00pm  -  mph 1017.3mb 6f
7:50pm  -  mph 1017.6mb 6f
7:40pm  -  mph 1017.6mb 7f
7:30pm  -  mph 1017.6mb 8f
7:20pm  -  mph 1017.9mb 8f
7:10pm  -  mph 1017.6mb 8f
7:00pm  -  1 mph 1017.6mb 9f
6:50pm  -  1 mph 1017.6mb 10f
6:40pm  -  1 mph 1017.6mb 11f
6:30pm  -  mph 1017.3mb 12f
6:20pm  -  2 mph 1017.3mb 13f
6:10pm  -  mph 1017.3mb 14f
6:00pm  -  mph 1017.3mb 15f
5:50pm  -  2 mph 1017.3mb 16f
5:40pm  -  1 mph 1017.3mb 16f
5:30pm  -  1 mph 1017.3mb 17f
5:20pm  -  1 mph 1016.9mb 17f
5:10pm  -  2 mph 1016.9mb 17f
5:00pm 2 3 mph 1016.9mb 17f
4:50pm  -  2 mph 1016.9mb 17f
4:40pm  -  mph 1016.9mb 18f
4:30pm  -  1 mph 1016.9mb 18f
4:20pm  -  2 mph 1016.9mb 18f
4:10pm  -  3 mph 1016.9mb 19f
4:00pm 2 3 mph 1017.3mb 19f
3:50pm  -  6 mph 1017.3mb 19f
3:40pm 5 6 mph 1017.3mb 18f
3:30pm 1 6 mph 1017.3mb 18f
3:20pm 5 7 mph 1017.3mb 18f
3:10pm 3 7 mph 1017.3mb 19f
3:00pm 6 7 mph 1017.3mb 19f
2:50pm 2 8 mph 1017.6mb 19f
2:40pm 3 7 mph 1017.6mb 19f
2:30pm 3 8 mph 1017.3mb 19f
2:20pm 6 9 mph 1016.9mb 19f
2:10pm 6 10 mph 1017.3mb 19f
2:00pm 6 10 mph 1017.3mb 19f
1:50pm 3 9 mph 1017.3mb 19f
1:40pm 5 9 mph 1017.3mb 19f
1:30pm 6 7 mph 1017.3mb 19f
1:20pm 5 9 mph 1017.3mb 19f
1:10pm 8 9 mph 1017.3mb 19f
1:00pm 8 9 mph 1017.6mb 20f
12:50pm 7 8 mph 1017.6mb 20f
12:40pm 6 9 mph 1017.6mb 19f
12:30pm 9 14 mph 1017.6mb 20f
12:20pm 5 7 mph 1017.6mb 19f
12:10pm 6 10 mph 1017.6mb 20f
12:00pm  -  mph 1017.6mb 19f
11:50am  -  mph 1017.6mb 19f
11:40am  -  mph 1017.6mb 19f
11:30am  -  mph 1017.6mb 18f
11:20am  -  mph 1017.6mb 19f
11:10am  -  mph 1017.6mb 18f
11:00am  -  mph 1017.6mb 19f
10:50am  -  mph 1017.6mb 18f
10:40am  -  mph 1017.3mb 18f
10:30am  -  mph 1017.3mb 18f
10:20am  -  mph 1017.3mb 17f
10:10am  -  mph 1016.9mb 18f
10:00am  -  mph 1016.9mb 17f
9:50am  -  mph 1016.9mb 17f
9:40am  -  mph 1016.6mb 17f
9:30am  -  mph 1016.3mb 17f
9:20am  -  mph 1016.3mb 17f
9:10am  -  mph 1015.9mb 17f
9:00am  -  mph 1015.9mb 18f
8:50am  -  mph 1015.6mb 17f
8:40am  -  mph 1015.9mb 17f
8:30am  -  mph 1015.6mb 17f
8:20am  -  mph 1015.6mb 17f
8:10am  -  mph 1015.9mb 17f
8:00am  -  mph 1015.6mb 17f
7:50am  -  mph 1015.6mb 18f
7:40am  -  mph 1015.6mb 17f
7:30am  -  mph 1015.6mb 18f
7:20am  -  mph 1015.2mb 17f
7:10am  -  mph 1015.2mb 18f
7:00am  -  mph 1015.2mb 17f
6:50am  -  mph 1014.9mb 17f
6:40am  -  mph 1014.9mb 17f
6:30am  -  mph 1014.9mb 17f
6:20am  -  mph 1014.9mb 17f
6:10am  -  mph 1014.6mb 17f
6:00am  -  mph 1014.6mb 17f
5:50am  -  mph 1014.6mb 17f
5:40am  -  mph 1014.6mb 17f
5:30am  -  mph 1014.2mb 17f
5:20am  -  mph 1014.2mb 18f
5:10am  -  mph 1013.9mb 17f
5:00am  -  mph 1013.9mb 17f
4:50am  -  mph 1013.9mb 17f
4:40am  -  mph 1013.5mb 18f
4:30am  -  mph 1013.5mb 17f
4:20am  -  mph 1013.5mb 17f
4:10am  -  mph 1013.5mb 17f
4:00am  -  mph 1013.5mb 17f
3:50am  -  mph 1013.2mb 17f
3:40am  -  mph 1013.2mb 17f
3:30am  -  mph 1013.2mb 17f
3:20am  -  mph 1012.9mb 18f
3:10am  -  mph 1012.9mb 18f
3:00am  -  mph 1012.9mb 18f
2:50am  -  mph 1012.9mb 18f
2:40am  -  mph 1012.5mb 18f
2:30am  -  mph 1012.2mb 18f
2:20am  -  mph 1012.5mb 18f
2:10am  -  mph 1012.5mb 18f
2:00am  -  mph 1012.2mb 19f
1:50am  -  mph 1012.2mb 19f
1:40am  -  mph 1011.9mb 19f
1:30am  -  mph 1011.9mb 19f
1:20am  -  mph 1011.5mb 19f
1:10am  -  mph 1011.5mb 19f
1:00am  -  mph 1011.2mb 19f
12:50am  -  mph 1011.2mb 19f
12:40am  -  mph 1010.8mb 19f
12:30am  -  mph 1010.8mb 19f
12:20am  -  mph 1010.5mb 19f
12:10am  -  mph 1010.5mb 19f
12:00am  -  mph 1010.2mb 19f
Sat 01/24 11:50pm  -  mph 1010.2mb 20f
11:40pm  -  mph 1010.2mb 20f
11:30pm  -  mph 1009.8mb 20f
11:20pm  -  mph 1009.5mb 20f
11:10pm  -  mph 1009.5mb 20f
11:00pm  -  mph 1009.1mb 21f
10:50pm  -  mph 1009.1mb 21f
10:40pm  -  mph 1008.8mb 21f
10:30pm  -  mph 1008.5mb 21f
10:20pm  -  mph 1008.5mb 21f
10:10pm  -  mph 1008.1mb 20f
10:00pm  -  mph 1008.1mb 20f
9:50pm  -  mph 1008.1mb 21f
9:40pm  -  mph 1007.8mb 21f
9:30pm  -  mph 1007.8mb 21f
9:20pm  -  mph 1007.8mb 21f
9:10pm  -  mph 1007.8mb 21f
9:00pm  -  mph 1007.8mb 20f
8:50pm  -  mph 1007.5mb 20f
8:40pm  -  mph 1007.8mb 21f
8:30pm  -  mph 1007.8mb 21f
8:20pm  -  mph 1007.5mb 21f
8:10pm  -  mph 1007.5mb 21f
8:00pm  -  mph 1007.5mb 21f
7:50pm  -  mph 1007.5mb 21f
7:40pm  -  mph 1007.5mb 21f
7:30pm  -  mph 1007.5mb 21f
7:20pm  -  mph 1007.5mb 20f
7:10pm  -  mph 1007.1mb 21f
7:00pm  -  mph 1007.1mb 20f
6:50pm  -  mph 1007.1mb 21f
6:40pm  -  mph 1006.8mb 21f
6:30pm  -  mph 1006.8mb 20f
6:20pm  -  mph 1006.8mb 21f
6:10pm  -  mph 1006.8mb 21f
6:00pm  -  mph 1006.4mb 21f
5:50pm  -  mph 1006.4mb 21f
5:40pm  -  mph 1006.1mb 21f
5:30pm  -  mph 1006.1mb 21f
5:20pm  -  mph 1005.8mb 21f
5:10pm  -  mph 1005.8mb 21f
5:00pm  -  mph 1005.8mb 21f
4:50pm  -  mph 1005.4mb 21f
4:40pm  -  mph 1005.1mb 21f
4:30pm  -  mph 1005.1mb 22f
4:20pm  -  mph 1004.7mb 22f
4:10pm  -  mph 1004.7mb 22f
4:00pm  -  mph 1004.4mb 22f
3:50pm  -  mph 1004.1mb 22f
3:40pm  -  mph 1004.1mb 22f
3:30pm  -  mph 1003.7mb 22f
3:20pm  -  mph 1003.7mb 22f
3:10pm  -  mph 1003.4mb 23f
3:00pm  -  mph 1003mb 23f
2:50pm  -  mph 1003mb 23f
2:40pm  -  mph 1003mb 23f
2:30pm  -  mph 1002.7mb 23f
2:20pm  -  mph 1002.7mb 24f
2:10pm  -  mph 1002.7mb 24f
2:00pm  -  mph 1002.7mb 24f
1:50pm  -  mph 1002.4mb 24f
1:40pm  -  mph 1002.4mb 24f
1:30pm  -  mph 1002.4mb 24f
1:20pm  -  mph 1002.4mb 24f
1:10pm  -  mph 1002mb 24f
1:00pm  -  mph 1002.4mb 24f
12:50pm  -  mph 1002.4mb 25f
12:40pm  -  mph 1002.4mb 24f
12:30pm  -  mph 1002mb 24f
12:20pm  -  mph 1002mb 24f
12:10pm  -  mph 1002.4mb 24f
12:00pm  -  mph 1002.4mb 24f
11:50am  -  mph 1002.4mb 24f
11:40am  -  mph 1002.4mb 24f
11:30am  -  mph 1002.4mb 24f
11:20am  -  mph 1002mb 24f
11:10am  -  mph 1002mb 25f
11:00am  -  mph 1002mb 25f
10:50am  -  mph 1002mb 26f
10:40am  -  mph 1002mb 26f
10:30am  -  mph 1001.7mb 27f
10:20am  -  mph 1001.7mb 28f
10:10am  -  mph 1001.7mb 28f
10:00am  -  mph 1001.4mb 28f
9:50am  -  mph 1001.4mb 29f
9:40am  -  mph 1001.4mb 29f
9:30am  -  mph 1001mb 30f
9:20am  -  mph 1001mb 30f
9:10am  -  mph 1000.7mb 31f
9:00am  -  mph 1000.7mb 31f
8:50am  -  mph 1000.7mb 31f
8:40am  -  mph 1000.3mb 30f
8:30am  -  mph 1000.3mb 31f
8:20am  -  mph 1000.3mb 31f
8:10am  -  mph 1000.3mb 35f
8:00am  -  mph 1000.3mb 35f
7:50am  -  mph 1000.3mb 35f
7:40am  -  mph 1000.3mb 35f
7:30am  -  mph 1000.3mb 35f
7:20am  -  mph 1000.3mb 35f
7:10am  -  mph 1000mb 35f
7:00am  -  mph 1000mb 35f
6:50am  -  mph 1000mb 35f
6:40am  -  mph 1000mb 35f
6:30am  -  mph 1000mb 35f
6:20am  -  mph 1000mb 35f
6:10am  -  mph 1000mb 35f
6:00am  -  mph 1000mb 35f
5:50am  -  mph 1000mb 35f
5:40am  -  mph 1000mb 35f
5:30am  -  mph 1000mb 36f
5:20am  -  mph 1000mb 36f
5:10am  -  mph 1000mb 36f
5:00am  -  mph 1000mb 36f
4:50am  -  mph 1000mb 36f
4:40am  -  mph 1000mb 36f
4:30am  -  mph 999.7mb 36f
4:20am  -  mph 1000mb 36f
4:10am  -  mph 1000mb 36f
4:00am  -  mph 1000mb 36f
3:50am  -  mph 1000mb 36f
3:40am  -  mph 1000.3mb 36f
3:30am  -  mph 1000.3mb 36f
3:20am  -  mph 1000.3mb 36f
3:10am  -  mph 1000.3mb 35f
3:00am  -  mph 1000.3mb 35f
2:50am  -  mph 1000.7mb 35f
2:40am  -  mph 1000.7mb 35f
2:30am  -  mph 1000.7mb 35f
2:20am  -  mph 1000.7mb 35f
2:10am  -  mph 1000.7mb 35f
2:00am  -  mph 1000.7mb 35f
1:50am  -  mph 1001mb 36f
1:40am  -  mph 1001mb 37f
1:30am  -  mph 1001mb 37f
1:20am  -  mph 1001mb 37f
1:10am  -  mph 1001mb 37f
1:00am  -  mph 1001.4mb 37f
12:50am  -  mph 1001.7mb 37f
12:40am  -  mph 1001.4mb 37f
12:30am  -  mph 1001.7mb 37f
12:20am  -  mph 1001.7mb 37f
12:10am  -  mph 1001.7mb 37f
12:00am  -  mph 1001.7mb 37f
Fri 01/23 11:50pm  -  mph 1001.7mb 37f